createdAt,value
2018-12-24T00:03:39.736Z,79.55
2018-12-24T00:07:44.455Z,79.49
2018-12-24T00:11:49.152Z,79.49
2018-12-24T00:15:53.883Z,79.65
2018-12-24T00:19:58.576Z,79.79
2018-12-24T00:24:03.307Z,79.84
2018-12-24T00:28:08.024Z,79.72
2018-12-24T00:32:12.730Z,79.65
2018-12-24T00:36:17.571Z,79.70
2018-12-24T00:40:22.271Z,79.73
2018-12-24T00:44:27.467Z,79.77
2018-12-24T00:48:32.149Z,79.75
2018-12-24T00:52:37.033Z,79.64
2018-12-24T00:56:41.776Z,79.62
2018-12-24T01:00:46.484Z,79.48
2018-12-24T01:04:51.209Z,79.50
2018-12-24T01:08:55.992Z,79.43
2018-12-24T01:13:00.687Z,79.71
2018-12-24T01:17:05.387Z,79.88
2018-12-24T01:21:10.095Z,79.52
2018-12-24T01:25:14.809Z,79.87
2018-12-24T01:29:19.484Z,80.15
2018-12-24T01:33:24.158Z,80.17
2018-12-24T01:37:28.885Z,80.29
2018-12-24T01:41:55.771Z,80.71
2018-12-24T01:46:41.175Z,80.92
2018-12-24T01:50:46.876Z,80.70
2018-12-24T01:54:51.757Z,80.86
2018-12-24T01:58:56.975Z,80.81
2018-12-24T02:03:01.695Z,81.03
2018-12-24T02:07:06.863Z,81.36
2018-12-24T02:11:11.527Z,81.39
2018-12-24T02:15:16.181Z,81.51
2018-12-24T02:19:20.956Z,81.77
2018-12-24T02:23:25.695Z,81.80
2018-12-24T02:27:30.952Z,81.43
2018-12-24T02:31:35.858Z,81.63
2018-12-24T02:35:40.571Z,81.74
2018-12-24T02:39:45.391Z,81.92
2018-12-24T02:43:50.324Z,82.00
2018-12-24T02:47:55.637Z,82.00
2018-12-24T02:52:01.352Z,82.17
2018-12-24T02:56:06.143Z,82.07
2018-12-24T03:00:11.002Z,82.29
2018-12-24T03:04:15.842Z,82.13
2018-12-24T03:12:30.437Z,82.14
2018-12-24T03:16:35.245Z,82.17
2018-12-24T03:20:40.026Z,82.18
2018-12-24T03:24:44.774Z,82.21
2018-12-24T03:28:49.577Z,82.06
2018-12-24T03:32:55.263Z,82.14
2018-12-24T03:37:01.774Z,82.29
2018-12-24T03:41:06.649Z,82.04
2018-12-24T03:45:11.657Z,81.99
2018-12-24T03:49:16.545Z,81.93
2018-12-24T03:53:41.937Z,81.83
2018-12-24T03:57:39.139Z,81.72
2018-12-24T04:02:04.964Z,81.70
2018-12-24T04:06:10.279Z,81.69
2018-12-24T04:10:35.842Z,81.64
2018-12-24T04:14:41.327Z,81.72
2018-12-24T04:18:46.916Z,81.75
2018-12-24T04:24:04.910Z,81.89
2018-12-24T04:28:10.465Z,82.20
2018-12-24T04:32:15.614Z,82.33
2018-12-24T04:40:47.072Z,82.47
2018-12-24T04:44:52.765Z,82.41
2018-12-24T04:48:58.218Z,82.67
2018-12-24T04:53:03.784Z,82.79
2018-12-24T04:57:12.785Z,83.26
2018-12-24T05:01:18.373Z,83.60
2018-12-24T05:05:22.730Z,83.44
2018-12-24T05:09:27.640Z,83.77
2018-12-24T05:13:40.659Z,83.57
2018-12-24T05:17:39.313Z,83.42
2018-12-24T05:22:07.869Z,81.72
2018-12-24T05:26:12.261Z,80.99
2018-12-24T05:30:19.326Z,80.16
2018-12-24T05:34:23.879Z,80.46
2018-12-24T05:38:28.179Z,81.02
2018-12-24T05:42:32.529Z,81.34
2018-12-24T05:46:58.655Z,81.26
2018-12-24T05:55:15.576Z,80.90
2018-12-24T05:59:19.935Z,81.00
2018-12-24T06:03:35.408Z,80.94
2018-12-24T06:08:03.271Z,80.30
2018-12-24T06:12:07.538Z,80.22
2018-12-24T06:16:21.280Z,80.11
2018-12-24T06:20:54.921Z,80.03
2018-12-24T06:24:59.473Z,79.98
2018-12-24T06:29:28.303Z,79.76
2018-12-24T06:33:33.550Z,79.90
2018-12-24T06:42:03.291Z,79.72
2018-12-24T06:46:16.395Z,79.61
2018-12-24T06:50:20.726Z,79.47
2018-12-24T06:54:24.978Z,79.50
2018-12-24T06:58:29.303Z,79.85
2018-12-24T07:02:51.333Z,79.91
2018-12-24T07:06:44.690Z,79.88
2018-12-24T07:15:07.906Z,79.57
2018-12-24T07:19:12.595Z,79.68
2018-12-24T07:23:17.089Z,80.01
2018-12-24T07:27:46.322Z,80.15
2018-12-24T07:31:50.762Z,80.28
2018-12-24T07:35:55.213Z,80.19
2018-12-24T07:40:07.427Z,80.18
2018-12-24T07:48:38.469Z,80.28
2018-12-24T07:52:53.011Z,80.33
2018-12-24T07:57:01.530Z,80.55
2018-12-24T08:01:11.851Z,80.73
2018-12-24T08:05:16.099Z,80.63
2018-12-24T08:09:20.453Z,80.80
2018-12-24T08:13:44.484Z,80.84
2018-12-24T08:17:48.775Z,80.87
2018-12-24T08:21:53.156Z,80.68
2018-12-24T08:25:57.619Z,80.86
2018-12-24T08:30:02.152Z,80.82
2018-12-24T08:34:20.545Z,80.93
2018-12-24T08:38:25.283Z,81.10
2018-12-24T08:42:29.944Z,80.98
2018-12-24T08:46:34.235Z,81.15
2018-12-24T08:50:38.600Z,81.09
2018-12-24T08:54:42.952Z,80.96
2018-12-24T08:58:47.254Z,80.85
2018-12-24T09:02:51.607Z,81.00
2018-12-24T09:06:55.881Z,80.91
2018-12-24T09:11:00.196Z,80.74
2018-12-24T09:15:04.824Z,80.55
2018-12-24T09:19:11.515Z,80.83
2018-12-24T09:23:15.817Z,81.09
2018-12-24T09:27:20.098Z,81.17
2018-12-24T09:31:24.399Z,80.86
2018-12-24T09:35:28.805Z,80.85
2018-12-24T09:39:52.504Z,80.80
2018-12-24T09:43:56.784Z,80.62
2018-12-24T09:48:01.165Z,80.61
2018-12-24T09:52:09.115Z,80.59
2018-12-24T09:56:13.528Z,80.97
2018-12-24T10:00:18.320Z,80.74
2018-12-24T10:05:00.742Z,80.97
2018-12-24T10:09:10.288Z,80.88
2018-12-24T10:13:14.568Z,80.95
2018-12-24T10:17:19.004Z,81.10
2018-12-24T10:21:23.261Z,80.81
2018-12-24T10:25:27.567Z,80.89
2018-12-24T10:29:31.961Z,80.88
2018-12-24T10:33:36.251Z,80.42
2018-12-24T10:37:40.525Z,80.12
2018-12-24T10:41:44.799Z,79.61
2018-12-24T10:45:49.057Z,79.38
2018-12-24T10:49:53.354Z,78.96
2018-12-24T10:53:57.590Z,78.63
2018-12-24T10:58:01.959Z,77.87
2018-12-24T11:02:06.257Z,78.13
2018-12-24T11:06:10.525Z,77.89
2018-12-24T11:10:14.816Z,77.34
2018-12-24T11:14:19.076Z,77.28
2018-12-24T11:18:23.391Z,76.92
2018-12-24T11:22:27.704Z,76.65
2018-12-24T11:26:31.964Z,76.50
2018-12-24T11:30:36.328Z,75.98
2018-12-24T11:34:40.643Z,76.22
2018-12-24T11:38:45.028Z,75.02
2018-12-24T11:42:49.459Z,74.20
2018-12-24T11:46:53.759Z,74.02
2018-12-24T11:50:59.012Z,73.25
2018-12-24T11:55:03.385Z,72.59
2018-12-24T11:59:08.493Z,73.35
2018-12-24T12:03:12.948Z,73.55
2018-12-24T12:07:17.226Z,71.57
2018-12-24T12:11:21.492Z,71.19
2018-12-24T12:15:25.796Z,70.16
2018-12-24T12:19:30.030Z,69.73
2018-12-24T12:23:34.430Z,69.22
2018-12-24T12:27:38.716Z,67.56
2018-12-24T12:31:43.043Z,66.61
2018-12-24T12:35:47.243Z,66.39
2018-12-24T12:39:51.570Z,66.68
2018-12-24T12:43:55.844Z,65.37
2018-12-24T12:48:00.301Z,65.04
2018-12-24T12:52:04.559Z,64.72
2018-12-24T12:56:08.857Z,64.10
2018-12-24T13:00:13.144Z,63.45
2018-12-24T13:04:17.436Z,63.75
2018-12-24T13:08:21.748Z,64.46
2018-12-24T13:12:26.044Z,65.32
2018-12-24T13:16:30.346Z,64.42
2018-12-24T13:20:34.633Z,64.45
2018-12-24T13:24:38.928Z,64.45
2018-12-24T13:28:43.255Z,64.61
2018-12-24T13:32:47.634Z,66.02
2018-12-24T13:36:51.915Z,65.04
2018-12-24T13:40:56.191Z,65.11
2018-12-24T13:45:00.492Z,64.27
2018-12-24T13:49:04.776Z,64.23
2018-12-24T13:53:09.176Z,64.41
2018-12-24T13:57:13.423Z,63.85
2018-12-24T14:01:17.668Z,63.76
2018-12-24T14:05:21.958Z,63.08
2018-12-24T14:09:26.305Z,63.09
2018-12-24T14:13:30.631Z,64.26
2018-12-24T14:17:34.920Z,64.12
2018-12-24T14:21:39.362Z,64.60
2018-12-24T14:25:43.596Z,64.49
2018-12-24T14:29:47.899Z,65.05
2018-12-24T14:33:52.353Z,65.27
2018-12-24T14:37:57.265Z,65.17
2018-12-24T14:42:01.576Z,63.97
2018-12-24T14:46:06.023Z,62.45
2018-12-24T14:54:57.431Z,63.04
2018-12-24T14:59:01.683Z,63.37
2018-12-24T15:03:05.971Z,63.28
2018-12-24T15:07:10.275Z,63.33
2018-12-24T15:11:14.539Z,63.53
2018-12-24T15:15:31.536Z,63.33
2018-12-24T15:19:30.189Z,62.72
2018-12-24T15:27:44.076Z,62.62
2018-12-24T15:31:48.435Z,62.99
2018-12-24T15:35:53.080Z,62.96
2018-12-24T15:39:57.344Z,63.00
2018-12-24T15:44:01.588Z,63.62
2018-12-24T15:48:05.849Z,63.57
2018-12-24T15:52:10.231Z,63.96
2018-12-24T15:56:14.552Z,64.23
2018-12-24T16:00:18.941Z,63.91
2018-12-24T16:04:23.181Z,63.95
2018-12-24T16:08:27.460Z,64.00
2018-12-24T16:12:31.683Z,64.26
2018-12-24T16:16:36.005Z,64.58
2018-12-24T16:20:40.277Z,64.51
2018-12-24T16:24:44.605Z,65.00
2018-12-24T16:28:49.006Z,65.03
2018-12-24T16:32:53.311Z,65.38
2018-12-24T16:36:57.582Z,65.09
2018-12-24T16:41:01.885Z,65.59
2018-12-24T16:45:06.252Z,65.82
2018-12-24T16:49:10.603Z,66.00
2018-12-24T16:53:14.816Z,66.04
2018-12-24T16:57:19.077Z,66.02
2018-12-24T17:01:23.304Z,66.37
2018-12-24T17:05:27.627Z,66.44
2018-12-24T17:09:32.146Z,67.10
2018-12-24T17:13:36.439Z,67.42
2018-12-24T17:17:40.719Z,66.95
2018-12-24T17:21:44.986Z,66.81
2018-12-24T17:25:49.276Z,66.62
2018-12-24T17:29:53.704Z,66.98
2018-12-24T17:33:58.358Z,66.86
2018-12-24T17:38:02.646Z,67.07
2018-12-24T17:42:06.907Z,66.86
2018-12-24T17:46:11.209Z,66.95
2018-12-24T17:50:15.496Z,66.70
2018-12-24T17:54:19.739Z,66.42
2018-12-24T17:58:24.042Z,66.68
2018-12-24T18:02:28.294Z,66.92
2018-12-24T18:06:32.578Z,66.68
2018-12-24T18:10:36.832Z,66.82
2018-12-24T18:14:41.151Z,67.17
2018-12-24T18:18:45.460Z,67.35
2018-12-24T18:22:49.757Z,67.34
2018-12-24T18:26:54.067Z,67.59
2018-12-24T18:30:58.334Z,67.66
2018-12-24T18:35:02.669Z,67.67
2018-12-24T18:39:08.120Z,67.45
2018-12-24T18:43:31.450Z,68.38
2018-12-24T18:52:18.377Z,67.71
2018-12-24T18:56:22.688Z,67.76
2018-12-24T19:00:26.932Z,67.46
2018-12-24T19:04:33.133Z,67.23
2018-12-24T19:08:37.410Z,66.79
2018-12-24T19:12:41.707Z,66.64
2018-12-24T19:16:45.985Z,66.36
2018-12-24T19:20:50.340Z,66.07
2018-12-24T19:24:54.587Z,66.03
2018-12-24T19:28:58.892Z,65.52
2018-12-24T19:33:03.140Z,65.74
2018-12-24T19:37:07.402Z,65.59
2018-12-24T19:41:11.693Z,65.30
2018-12-24T19:45:15.928Z,65.33
2018-12-24T19:49:39.331Z,65.22
2018-12-24T19:53:43.623Z,65.76
2018-12-24T19:57:47.881Z,65.23
2018-12-24T20:01:52.167Z,65.39
2018-12-24T20:05:56.473Z,65.30
2018-12-24T20:10:00.703Z,65.12
2018-12-24T20:14:04.996Z,64.97
2018-12-24T20:18:09.302Z,65.12
2018-12-24T20:22:13.622Z,65.08
2018-12-24T20:26:17.933Z,65.08
2018-12-24T20:30:22.220Z,64.82
2018-12-24T20:34:26.561Z,65.38
2018-12-24T20:38:36.997Z,65.05
2018-12-24T20:42:36.901Z,65.18
2018-12-24T20:46:41.229Z,64.92
2018-12-24T20:50:45.541Z,65.52
2018-12-24T20:54:49.759Z,65.19
2018-12-24T20:58:54.157Z,64.46
2018-12-24T21:02:58.435Z,65.12
2018-12-24T21:07:03.173Z,65.09
2018-12-24T21:11:07.469Z,64.97
2018-12-24T21:15:11.689Z,64.90
2018-12-24T21:19:16.007Z,64.62
2018-12-24T21:23:20.239Z,64.03
2018-12-24T21:27:24.585Z,62.81
2018-12-24T21:31:28.899Z,62.83
2018-12-24T21:35:33.188Z,62.63
2018-12-24T21:39:37.487Z,62.46
2018-12-24T21:43:41.806Z,61.87
2018-12-24T21:47:46.068Z,61.81
2018-12-24T21:51:50.327Z,61.84
2018-12-24T21:55:54.610Z,62.40
2018-12-24T21:59:58.842Z,62.55
2018-12-24T22:04:03.128Z,63.22
2018-12-24T22:08:07.409Z,63.49
2018-12-24T22:12:11.680Z,63.94
2018-12-24T22:16:15.996Z,64.13
2018-12-24T22:20:20.389Z,63.96
2018-12-24T22:24:24.673Z,63.79
2018-12-24T22:28:28.943Z,64.22
2018-12-24T22:32:33.176Z,64.23
2018-12-24T22:36:37.523Z,64.24
2018-12-24T22:40:41.905Z,64.32
2018-12-24T22:44:46.239Z,64.58
2018-12-24T22:48:50.577Z,64.69
2018-12-24T22:52:54.896Z,64.57
2018-12-24T22:56:59.114Z,64.01
2018-12-24T23:01:03.404Z,62.93
2018-12-24T23:05:07.693Z,62.92
2018-12-24T23:09:11.984Z,62.16
2018-12-24T23:13:16.371Z,60.83
2018-12-24T23:17:20.666Z,60.99
2018-12-24T23:21:24.909Z,60.35
2018-12-24T23:25:29.233Z,59.83
2018-12-24T23:29:33.503Z,59.66
2018-12-24T23:33:37.837Z,60.19
2018-12-24T23:37:42.142Z,59.09
2018-12-24T23:41:46.449Z,59.33
2018-12-24T23:45:50.682Z,58.96
2018-12-24T23:49:55.348Z,59.60
2018-12-24T23:54:01.001Z,59.40
2018-12-24T23:58:05.354Z,58.63
